Flight Track Log - Related Links

Times and Time Zones

All times are in EDT time to prevent confusion due to time zone crossing. See the N20WL flight status page for this flight to view local times or setup timezone preferences in your user account.

Time Position Orientation Groundspeed Altitude Reporting Facility
EDT Latitude Longitude Course Direction KTS MPH feet Rate Location/Type
Sun 10:05:07 PM 35.3500 -86.2433 68° East 249 287 4,600  Level Memphis Center
Sun 10:06:07 PM 35.3667 -86.1789 72° East 197 227 7,200 2,450 Climbing Memphis Center
Sun 10:07:07 PM 35.3817 -86.1272 70° East 176 203 9,500 2,100 Climbing Memphis Center
Sun 10:08:07 PM 35.3986 -86.0753 68° East 165 190 11,400 1,850 Climbing Memphis Center
Sun 10:09:07 PM 35.4131 -86.0161 73° East 172 198 13,200 1,617 Climbing Memphis Center
Sun 10:10:00 PM 35.4717 -85.8850 68° East  Level FlightAware Approximate
Sun 10:10:54 PM 35.4372 -85.9022 75° East 187 215 15,900  Level Atlanta Center
Sun 10:11:54 PM 35.4547 -85.8361 72° East 192 221 17,000 500 Climbing Atlanta Center
Sun 10:12:54 PM 35.4706 -85.7575 76° East 212 244 16,900 -50 Descending Atlanta Center
Sun 10:13:54 PM 35.4883 -85.6711 76° East 242 278 16,900  Level Atlanta Center
Sun 10:14:54 PM 35.5106 -85.5822 73° East 254 292 16,900  Level Atlanta Center
Sun 10:15:54 PM 35.5303 -85.4958 74° East 260 299 16,900 50 Level Atlanta Center
Sun 10:16:54 PM 35.5522 -85.4069 73° East 260 299 17,000 50 Climbing Atlanta Center
Sun 10:17:54 PM 35.5678 -85.3203 78° East 260 299 17,000 -50 Level Atlanta Center
Sun 10:18:54 PM 35.5853 -85.2339 76° East 260 299 16,900 -200 Descending Atlanta Center
Sun 10:19:54 PM 35.6069 -85.1447 73° East 260 299 16,600 -400 Descending Atlanta Center
Sun 10:20:54 PM 35.6306 -85.0531 72° East 260 299 16,100 -500 Descending Atlanta Center
Sun 10:21:54 PM 35.6503 -84.9589 76° East 271 312 15,600 -550 Descending Atlanta Center
Sun 10:22:54 PM 35.6781 -84.8697 69° East 277 319 15,000 -600 Descending Atlanta Center
Sun 10:23:54 PM 35.7119 -84.7831 64° Northeast 282 325 14,400 -700 Descending Atlanta Center
Sun 10:24:54 PM 35.7458 -84.6911 66° East 282 325 13,600 -850 Descending Atlanta Center
Sun 10:25:54 PM 35.7794 -84.6044 64° Northeast 287 330 12,700 -850 Descending Atlanta Center
Sun 10:26:54 PM 35.8111 -84.5175 66° East 282 325 11,900 -850 Descending Atlanta Center
Sun 10:27:54 PM 35.8386 -84.4358 67° East 277 319 11,000 -800 Descending Atlanta Center
Sun 10:28:54 PM 35.8681 -84.3489 67° East 277 319 10,300 -750 Descending Atlanta Center
Sun 10:29:54 PM 35.8953 -84.2617 69° East 271 312 9,500 -700 Descending Atlanta Center
Sun 10:30:54 PM 35.9247 -84.1772 67° East 271 312 8,900 -600 Descending Atlanta Center
Sun 10:31:54 PM 35.9519 -84.0953 68° East 271 312 8,300 -600 Descending Atlanta Center
Sun 10:33:00 PM 35.9760 -84.0147 70° East  Level FlightAware Approximate
Sun 10:40:00 PM 36.1276 -83.5006 70° East  Level FlightAware Approximate
Sun 10:41:00 PM 36.1491 -83.4270 70° East  Level FlightAware Approximate

Login

Don't have an account? Register now (free) for customized features, flight alerts, and more!